createdAt,value
2023-10-29T00:04:37.066Z,72.01
2023-10-29T00:09:41.005Z,72.02
2023-10-29T00:14:46.073Z,72.33
2023-10-29T00:19:51.689Z,73.26
2023-10-29T00:24:55.219Z,72.96
2023-10-29T00:30:00.213Z,72.23
2023-10-29T00:35:03.808Z,72.04
2023-10-29T00:40:08.654Z,72.23
2023-10-29T00:45:13.668Z,71.81
2023-10-29T00:50:17.118Z,73.16
2023-10-29T00:55:20.915Z,72.45
2023-10-29T01:00:25.954Z,71.61
2023-10-29T01:05:29.568Z,72.77
2023-10-29T01:10:33.573Z,71.75
2023-10-29T01:15:38.885Z,73.04
2023-10-29T01:20:42.512Z,72.02
2023-10-29T01:25:46.453Z,72.52
2023-10-29T01:30:51.304Z,72.19
2023-10-29T01:35:55.104Z,72.79
2023-10-29T01:40:58.689Z,72.87
2023-10-29T01:46:04.011Z,72.70
2023-10-29T01:51:08.312Z,71.79
2023-10-29T01:56:11.950Z,71.62
2023-10-29T02:01:16.945Z,72.63
2023-10-29T02:06:20.885Z,71.87
2023-10-29T02:11:24.842Z,71.61
2023-10-29T02:16:29.903Z,71.65
2023-10-29T02:21:33.604Z,71.31
2023-10-29T02:26:38.632Z,72.66
2023-10-29T02:31:43.011Z,71.86
2023-10-29T02:36:46.515Z,71.76
2023-10-29T02:41:51.527Z,71.42
2023-10-29T02:46:54.980Z,72.74
2023-10-29T02:51:58.473Z,71.95
2023-10-29T02:57:04.456Z,72.42
2023-10-29T03:02:08.145Z,71.20
2023-10-29T03:07:11.657Z,71.29
2023-10-29T03:12:16.536Z,72.49
2023-10-29T03:17:20.023Z,72.05
2023-10-29T03:22:23.557Z,72.41
2023-10-29T03:27:29.013Z,72.04
2023-10-29T03:32:32.695Z,72.23
2023-10-29T03:37:36.361Z,72.16
2023-10-29T03:42:41.220Z,70.99
2023-10-29T03:47:44.964Z,71.83
2023-10-29T03:52:48.605Z,71.90
2023-10-29T03:57:53.439Z,71.27
2023-10-29T04:02:57.239Z,71.56
2023-10-29T04:08:01.192Z,71.16
2023-10-29T04:13:06.049Z,71.72
2023-10-29T04:18:09.544Z,71.37
2023-10-29T04:23:13.067Z,71.07
2023-10-29T04:28:18.039Z,72.40
2023-10-29T04:33:21.566Z,72.02
2023-10-29T04:38:25.134Z,71.66
2023-10-29T04:43:29.980Z,71.17
2023-10-29T04:48:33.630Z,71.33
2023-10-29T04:53:37.282Z,71.82
2023-10-29T04:58:42.140Z,72.18
2023-10-29T05:03:45.696Z,71.87
2023-10-29T05:08:49.473Z,71.20
2023-10-29T05:13:54.869Z,72.21
2023-10-29T05:18:58.535Z,70.84
2023-10-29T05:24:04.095Z,71.75
2023-10-29T05:29:09.093Z,71.44
2023-10-29T05:34:12.625Z,70.94
2023-10-29T05:39:17.413Z,71.01
2023-10-29T05:44:22.356Z,72.18
2023-10-29T05:49:25.772Z,71.76
2023-10-29T05:54:30.522Z,71.10
2023-10-29T05:59:35.467Z,70.72
2023-10-29T06:04:39.165Z,72.20
2023-10-29T06:09:42.781Z,71.33
2023-10-29T06:14:48.995Z,70.91
2023-10-29T06:19:52.884Z,71.95
2023-10-29T06:24:56.499Z,71.81
2023-10-29T06:30:01.649Z,71.37
2023-10-29T06:35:05.652Z,70.87
2023-10-29T06:40:10.670Z,71.90
2023-10-29T06:45:15.698Z,71.20
2023-10-29T06:50:19.922Z,71.88
2023-10-29T06:55:24.441Z,71.01
2023-10-29T07:00:30.465Z,71.37
2023-10-29T07:05:34.758Z,71.66
2023-10-29T07:10:38.487Z,71.10
2023-10-29T07:15:43.626Z,71.89
2023-10-29T07:20:47.302Z,71.50
2023-10-29T07:25:51.037Z,71.69
2023-10-29T07:30:55.975Z,71.25
2023-10-29T07:35:59.427Z,71.27
2023-10-29T07:41:03.346Z,72.20
2023-10-29T07:46:08.256Z,72.55
2023-10-29T07:51:14.717Z,72.43
2023-10-29T07:56:18.236Z,72.21
2023-10-29T08:01:23.430Z,71.88
2023-10-29T08:06:27.017Z,71.57
2023-10-29T08:11:30.577Z,71.97
2023-10-29T08:16:35.683Z,71.98
2023-10-29T08:21:39.128Z,72.10
2023-10-29T08:26:42.625Z,72.45
2023-10-29T08:31:47.597Z,72.42
2023-10-29T08:36:51.049Z,72.21
2023-10-29T08:41:55.019Z,73.61
2023-10-29T08:47:00.092Z,72.48
2023-10-29T08:52:03.969Z,72.75
2023-10-29T08:57:07.778Z,73.66
2023-10-29T09:02:12.650Z,73.44
2023-10-29T09:07:16.090Z,72.99
2023-10-29T09:12:19.569Z,72.32
2023-10-29T09:17:24.490Z,73.53
2023-10-29T09:22:28.132Z,73.36
2023-10-29T09:27:31.611Z,73.65
2023-10-29T09:32:36.881Z,72.90
2023-10-29T09:37:40.673Z,72.99
2023-10-29T09:42:53.055Z,72.92
2023-10-29T09:48:00.104Z,73.79
2023-10-29T09:53:04.418Z,73.90
2023-10-29T09:58:08.320Z,73.29
2023-10-29T10:03:13.355Z,73.74
2023-10-29T10:08:17.278Z,73.11
2023-10-29T10:13:20.752Z,73.76
2023-10-29T10:18:25.858Z,73.47
2023-10-29T10:23:29.460Z,74.10
2023-10-29T10:28:34.118Z,74.90
2023-10-29T10:33:39.446Z,74.94
2023-10-29T10:38:54.415Z,75.02
2023-10-29T10:44:10.424Z,74.59
2023-10-29T10:49:15.707Z,75.40
2023-10-29T10:54:20.204Z,74.91
2023-10-29T10:59:24.237Z,74.86
2023-10-29T11:04:30.504Z,75.32
2023-10-29T11:09:34.125Z,75.73
2023-10-29T11:14:37.617Z,75.35
2023-10-29T11:19:47.381Z,74.68
2023-10-29T11:25:29.518Z,74.98
2023-10-29T11:30:32.997Z,75.70
2023-10-29T11:35:38.291Z,75.43
2023-10-29T11:40:41.724Z,75.93
2023-10-29T11:45:57.722Z,75.16
2023-10-29T11:51:22.738Z,75.38
2023-10-29T11:56:29.313Z,76.59
2023-10-29T12:01:32.739Z,76.01
2023-10-29T12:06:42.002Z,76.65
2023-10-29T12:11:45.567Z,75.30
2023-10-29T12:16:49.145Z,76.41
2023-10-29T12:21:54.470Z,74.87
2023-10-29T12:26:57.995Z,76.04
2023-10-29T12:32:01.448Z,76.03
2023-10-29T12:37:06.500Z,75.55
2023-10-29T12:42:09.927Z,74.38
2023-10-29T12:47:18.285Z,75.88
2023-10-29T12:52:23.236Z,74.84
2023-10-29T12:57:26.669Z,75.28
2023-10-29T13:02:30.135Z,74.13
2023-10-29T13:07:35.797Z,74.03
2023-10-29T13:12:39.231Z,74.09
2023-10-29T13:17:42.787Z,74.32
2023-10-29T13:22:48.072Z,74.84
2023-10-29T13:27:51.484Z,74.67
2023-10-29T13:32:55.069Z,74.69
2023-10-29T13:38:00.395Z,74.14
2023-10-29T13:43:03.941Z,74.65
2023-10-29T13:48:08.381Z,74.62
2023-10-29T13:53:13.259Z,74.03
2023-10-29T13:58:16.725Z,73.27
2023-10-29T14:03:20.290Z,74.29
2023-10-29T14:08:26.012Z,73.38
2023-10-29T14:13:29.951Z,74.54
2023-10-29T14:18:33.419Z,73.93
2023-10-29T14:23:38.351Z,72.90
2023-10-29T14:28:41.779Z,74.13
2023-10-29T14:33:45.217Z,72.70
2023-10-29T14:38:50.052Z,72.88
2023-10-29T14:43:53.461Z,74.09
2023-10-29T14:48:56.868Z,74.20
2023-10-29T14:54:01.884Z,73.12
2023-10-29T14:59:08.776Z,72.82
2023-10-29T15:04:12.552Z,73.61
2023-10-29T15:09:19.047Z,73.59
2023-10-29T15:14:22.854Z,74.21
2023-10-29T15:19:36.526Z,73.23
2023-10-29T15:24:41.943Z,72.62
2023-10-29T15:29:47.599Z,73.96
2023-10-29T15:34:51.031Z,73.01
2023-10-29T15:39:56.840Z,72.73
2023-10-29T15:45:00.276Z,72.20
2023-10-29T15:50:04.666Z,74.02
2023-10-29T15:55:10.288Z,72.27
2023-10-29T16:00:14.932Z,72.83
2023-10-29T16:05:20.663Z,73.78
2023-10-29T16:10:25.460Z,73.30
2023-10-29T16:15:29.028Z,73.55
2023-10-29T16:20:32.442Z,73.46
2023-10-29T16:25:37.234Z,72.94
2023-10-29T16:30:41.444Z,73.62
2023-10-29T16:35:44.834Z,72.80
2023-10-29T16:40:51.472Z,73.76
2023-10-29T16:45:54.942Z,72.22
2023-10-29T16:51:03.611Z,73.12
2023-10-29T16:56:12.229Z,74.00
2023-10-29T17:01:15.811Z,73.27
2023-10-29T17:06:19.366Z,73.46
2023-10-29T17:11:24.463Z,73.69
2023-10-29T17:16:27.922Z,74.00
2023-10-29T17:21:31.407Z,73.14
2023-10-29T17:26:36.279Z,72.52
2023-10-29T17:31:39.695Z,73.89
2023-10-29T17:36:43.213Z,74.15
2023-10-29T17:41:48.043Z,72.88
2023-10-29T17:46:51.494Z,72.54
2023-10-29T17:51:54.960Z,74.08
2023-10-29T17:56:59.767Z,74.11
2023-10-29T18:02:03.387Z,74.13
2023-10-29T18:07:07.341Z,73.64
2023-10-29T18:12:12.252Z,73.16
2023-10-29T18:17:15.710Z,73.82
2023-10-29T18:22:19.118Z,73.52
2023-10-29T18:27:25.817Z,73.13
2023-10-29T18:32:29.343Z,73.44
2023-10-29T18:37:33.014Z,74.37
2023-10-29T18:42:37.899Z,74.54
2023-10-29T18:47:41.359Z,73.61
2023-10-29T18:52:44.824Z,74.62
2023-10-29T18:57:49.908Z,74.29
2023-10-29T19:02:53.431Z,73.43
2023-10-29T19:07:56.906Z,73.70
2023-10-29T19:13:01.774Z,74.62
2023-10-29T19:18:05.346Z,74.79
2023-10-29T19:23:08.788Z,73.53
2023-10-29T19:28:13.610Z,73.87
2023-10-29T19:33:17.016Z,74.11
2023-10-29T19:38:20.646Z,74.75
2023-10-29T19:43:25.541Z,74.17
2023-10-29T19:48:30.522Z,73.70
2023-10-29T19:53:34.965Z,74.62
2023-10-29T19:58:39.831Z,74.44
2023-10-29T20:03:43.365Z,74.37
2023-10-29T20:08:46.840Z,74.57
2023-10-29T20:13:51.997Z,73.57
2023-10-29T20:18:57.322Z,73.59
2023-10-29T20:24:00.806Z,74.29
2023-10-29T20:29:05.628Z,75.01
2023-10-29T20:34:09.108Z,73.90
2023-10-29T20:39:12.896Z,73.76
2023-10-29T20:44:17.709Z,73.74
2023-10-29T20:49:21.211Z,73.86
2023-10-29T20:54:24.699Z,74.70
2023-10-29T20:59:29.575Z,73.49
2023-10-29T21:04:33.079Z,73.56
2023-10-29T21:09:36.658Z,74.35
2023-10-29T21:14:41.475Z,73.83
2023-10-29T21:19:44.859Z,74.70
2023-10-29T21:24:48.314Z,73.76
2023-10-29T21:29:53.650Z,74.04
2023-10-29T21:34:57.072Z,74.75
2023-10-29T21:40:00.563Z,74.41
2023-10-29T21:45:06.178Z,73.62
2023-10-29T21:50:11.198Z,74.20
2023-10-29T21:55:14.618Z,74.82
2023-10-29T22:00:20.006Z,74.22
2023-10-29T22:05:23.414Z,74.40
2023-10-29T22:10:26.915Z,74.17
2023-10-29T22:15:31.915Z,74.49
2023-10-29T22:20:35.325Z,74.36
2023-10-29T22:25:38.811Z,73.88
2023-10-29T22:30:43.773Z,73.28
2023-10-29T22:35:47.290Z,73.33
2023-10-29T22:40:50.775Z,74.24
2023-10-29T22:45:55.676Z,73.95
2023-10-29T22:50:59.268Z,73.38
2023-10-29T22:56:02.774Z,73.06
2023-10-29T23:01:10.086Z,74.39
2023-10-29T23:06:14.196Z,73.79
2023-10-29T23:11:18.109Z,73.46
2023-10-29T23:16:22.954Z,74.13
2023-10-29T23:21:27.392Z,73.38
2023-10-29T23:26:32.679Z,72.84
2023-10-29T23:31:37.738Z,74.11
2023-10-29T23:36:41.261Z,73.32
2023-10-29T23:41:44.741Z,73.09
2023-10-29T23:46:49.879Z,73.77
2023-10-29T23:51:53.341Z,72.87
2023-10-29T23:56:56.758Z,73.89
